createdAt,value
2023-05-19T00:00:18.947Z,6.28
2023-05-19T00:03:24.824Z,6.28
2023-05-19T00:06:32.039Z,8.70
2023-05-19T00:09:37.253Z,7.22
2023-05-19T00:12:43.002Z,5.03
2023-05-19T00:15:47.842Z,7.00
2023-05-19T00:18:53.358Z,5.53
2023-05-19T00:21:58.957Z,7.45
2023-05-19T00:25:04.102Z,5.53
2023-05-19T00:28:08.298Z,5.88
2023-05-19T00:31:12.854Z,4.70
2023-05-19T00:34:17.317Z,7.57
2023-05-19T00:37:23.252Z,7.50
2023-05-19T00:40:30.628Z,5.82
2023-05-19T00:43:35.336Z,4.53
2023-05-19T00:46:40.101Z,6.53
2023-05-19T00:49:44.864Z,8.23
2023-05-19T00:52:50.522Z,6.05
2023-05-19T00:55:55.042Z,8.95
2023-05-19T00:59:00.229Z,5.65
2023-05-19T01:02:05.000Z,6.53
2023-05-19T01:05:15.638Z,7.15
2023-05-19T01:08:23.296Z,10.50
2023-05-19T01:11:27.746Z,6.88
2023-05-19T01:14:32.777Z,8.75
2023-05-19T01:18:07.318Z,7.03
2023-05-19T01:25:21.445Z,6.95
2023-05-19T01:29:14.070Z,7.20
2023-05-19T01:32:20.862Z,6.53
2023-05-19T01:35:26.622Z,7.35
2023-05-19T01:38:34.906Z,7.03
2023-05-19T01:41:42.574Z,5.05
2023-05-19T01:44:47.557Z,12.98
2023-05-19T01:47:59.685Z,8.77
2023-05-19T01:51:04.741Z,8.05
2023-05-19T01:54:09.285Z,8.48
2023-05-19T01:57:45.892Z,9.18
2023-05-19T02:01:16.208Z,5.70
2023-05-19T02:04:51.223Z,5.82
2023-05-19T02:08:20.796Z,6.35
2023-05-19T02:11:43.436Z,9.32
2023-05-19T02:15:18.260Z,6.43
2023-05-19T02:18:25.160Z,6.03
2023-05-19T02:21:30.004Z,5.55
2023-05-19T02:24:34.732Z,6.03
2023-05-19T02:27:39.646Z,6.13
2023-05-19T02:30:44.639Z,6.82
2023-05-19T02:33:49.677Z,8.00
2023-05-19T02:36:54.509Z,6.20
2023-05-19T02:40:01.139Z,7.25
2023-05-19T02:43:06.837Z,8.13
2023-05-19T02:46:11.752Z,7.72
2023-05-19T02:49:16.340Z,7.20
2023-05-19T02:52:21.225Z,8.38
2023-05-19T02:55:26.848Z,6.47
2023-05-19T02:58:31.838Z,6.80
2023-05-19T03:01:37.762Z,7.00
2023-05-19T03:04:43.071Z,9.63
2023-05-19T03:07:48.097Z,8.60
2023-05-19T03:10:52.579Z,7.22
2023-05-19T03:13:57.312Z,7.70
2023-05-19T03:17:02.165Z,10.95
2023-05-19T03:20:08.131Z,8.15
2023-05-19T03:23:12.833Z,7.05
2023-05-19T03:26:17.620Z,7.55
2023-05-19T03:29:22.428Z,7.45
2023-05-19T03:32:27.127Z,7.95
2023-05-19T03:35:32.028Z,6.57
2023-05-19T03:38:36.631Z,9.00
2023-05-19T03:41:41.440Z,8.35
2023-05-19T03:44:46.467Z,7.38
2023-05-19T03:47:51.563Z,7.72
2023-05-19T03:51:11.496Z,8.90
2023-05-19T03:54:16.928Z,7.20
2023-05-19T03:57:21.758Z,8.43
2023-05-19T04:00:26.652Z,6.80
2023-05-19T04:03:31.379Z,6.18
2023-05-19T04:06:36.326Z,8.73
2023-05-19T04:09:40.898Z,9.30
2023-05-19T04:12:46.385Z,6.38
2023-05-19T04:15:53.942Z,11.90
2023-05-19T04:18:58.951Z,10.43
2023-05-19T04:22:03.808Z,9.38
2023-05-19T04:25:08.986Z,9.95
2023-05-19T04:28:13.755Z,9.85
2023-05-19T04:31:18.167Z,8.13
2023-05-19T04:34:23.360Z,12.05
2023-05-19T04:37:28.314Z,7.80
2023-05-19T04:40:33.285Z,6.85
2023-05-19T04:43:44.412Z,10.40
2023-05-19T04:46:50.248Z,15.07
2023-05-19T04:49:55.480Z,8.02
2023-05-19T04:53:00.059Z,6.93
2023-05-19T04:56:05.507Z,9.00
2023-05-19T04:59:10.946Z,8.80
2023-05-19T05:02:16.111Z,7.28
2023-05-19T05:05:21.100Z,6.88
2023-05-19T05:08:27.152Z,6.10
2023-05-19T05:11:33.194Z,5.68
2023-05-19T05:14:40.295Z,7.95
2023-05-19T05:17:45.794Z,9.48
2023-05-19T05:20:51.221Z,7.43
2023-05-19T05:23:56.469Z,7.50
2023-05-19T05:27:03.891Z,7.55
2023-05-19T05:30:09.339Z,6.68
2023-05-19T05:33:16.128Z,5.25
2023-05-19T05:36:20.832Z,5.18
2023-05-19T05:39:27.239Z,4.95
2023-05-19T05:42:32.833Z,5.25
2023-05-19T05:45:38.039Z,8.25
2023-05-19T05:48:44.206Z,7.50
2023-05-19T05:52:01.870Z,5.93
2023-05-19T05:55:12.508Z,5.10
2023-05-19T05:58:17.369Z,3.75
2023-05-19T06:01:23.999Z,3.65
2023-05-19T06:04:31.165Z,4.22
2023-05-19T06:07:36.011Z,5.40
2023-05-19T06:10:44.556Z,4.07
2023-05-19T06:13:51.281Z,4.00
2023-05-19T06:17:14.707Z,5.55
2023-05-19T06:20:20.051Z,3.45
2023-05-19T06:23:25.335Z,4.05
2023-05-19T06:26:29.714Z,3.50
2023-05-19T06:29:34.280Z,3.72
2023-05-19T06:32:41.740Z,4.38
2023-05-19T06:35:46.359Z,4.47
2023-05-19T06:38:52.239Z,5.80
2023-05-19T06:41:57.905Z,3.50
2023-05-19T06:45:23.904Z,4.72
2023-05-19T06:48:30.235Z,6.20
2023-05-19T06:51:35.410Z,5.68
2023-05-19T06:54:40.111Z,5.53
2023-05-19T06:57:45.446Z,4.13
2023-05-19T07:00:50.729Z,2.55
2023-05-19T07:03:55.341Z,4.72
2023-05-19T07:07:00.971Z,5.90
2023-05-19T07:10:06.830Z,4.82
2023-05-19T07:13:11.681Z,3.30
2023-05-19T07:16:16.192Z,5.38
2023-05-19T07:19:24.209Z,5.40
2023-05-19T07:22:35.013Z,4.07
2023-05-19T07:25:39.835Z,4.85
2023-05-19T07:28:44.537Z,3.55
2023-05-19T07:31:54.086Z,3.15
2023-05-19T07:34:58.805Z,4.13
2023-05-19T07:38:04.081Z,3.65
2023-05-19T07:41:08.671Z,4.70
2023-05-19T07:44:13.693Z,6.53
2023-05-19T07:47:18.778Z,6.38
2023-05-19T07:50:24.165Z,3.80
2023-05-19T07:53:28.971Z,4.63
2023-05-19T07:56:33.764Z,4.28
2023-05-19T07:59:38.767Z,5.78
2023-05-19T08:02:44.514Z,5.63
2023-05-19T08:05:49.535Z,6.10
2023-05-19T08:08:54.514Z,6.28
2023-05-19T08:11:59.254Z,4.68
2023-05-19T08:15:05.231Z,4.90
2023-05-19T08:18:09.958Z,4.30
2023-05-19T08:21:14.812Z,3.88
2023-05-19T08:24:19.804Z,6.72
2023-05-19T08:27:24.592Z,4.95
2023-05-19T08:30:29.106Z,4.25
2023-05-19T08:33:33.410Z,4.38
2023-05-19T08:36:37.996Z,4.70
2023-05-19T08:39:42.334Z,3.35
2023-05-19T08:42:47.926Z,6.22
2023-05-19T08:45:54.123Z,3.42
2023-05-19T08:49:24.902Z,5.68
2023-05-19T08:52:41.944Z,4.25
2023-05-19T08:56:11.093Z,4.25
2023-05-19T08:59:17.299Z,5.47
2023-05-19T09:02:23.189Z,3.95
2023-05-19T09:05:28.473Z,4.15
2023-05-19T09:08:33.590Z,4.60
2023-05-19T09:11:38.341Z,5.35
2023-05-19T09:14:43.266Z,3.65
2023-05-19T09:17:48.166Z,3.75
2023-05-19T09:21:02.592Z,3.78
2023-05-19T09:24:09.938Z,3.78
2023-05-19T09:27:21.198Z,4.43
2023-05-19T09:30:26.547Z,3.10
2023-05-19T09:33:46.058Z,2.83
2023-05-19T09:36:54.791Z,3.50
2023-05-19T09:40:00.292Z,2.85
2023-05-19T09:43:08.546Z,3.80
2023-05-19T09:46:14.650Z,4.85
2023-05-19T09:49:30.353Z,3.95
2023-05-19T09:52:39.565Z,3.17
2023-05-19T09:55:44.365Z,3.97
2023-05-19T09:58:49.561Z,2.47
2023-05-19T10:01:59.368Z,4.53
2023-05-19T10:05:05.647Z,4.88
2023-05-19T10:08:11.752Z,5.53
2023-05-19T10:11:17.962Z,4.82
2023-05-19T10:14:28.818Z,5.68
2023-05-19T10:17:35.693Z,8.98
2023-05-19T10:20:41.645Z,4.10
2023-05-19T10:23:46.093Z,4.82
2023-05-19T10:27:12.144Z,5.45
2023-05-19T10:30:23.806Z,4.60
2023-05-19T10:34:06.597Z,5.43
2023-05-19T10:37:25.116Z,3.38
2023-05-19T10:41:13.112Z,3.95
2023-05-19T10:44:51.236Z,9.35
2023-05-19T10:47:56.071Z,5.38
2023-05-19T10:51:01.118Z,5.47
2023-05-19T10:54:11.019Z,5.47
2023-05-19T10:57:18.103Z,5.30
2023-05-19T11:00:31.345Z,3.78
2023-05-19T11:03:53.967Z,4.60
2023-05-19T11:07:03.603Z,4.70
2023-05-19T11:10:09.486Z,3.75
2023-05-19T11:13:23.918Z,5.93
2023-05-19T11:16:30.241Z,7.50
2023-05-19T11:19:36.218Z,6.53
2023-05-19T11:22:43.796Z,3.92
2023-05-19T11:25:51.710Z,4.47
2023-05-19T11:28:58.067Z,12.35
2023-05-19T11:32:04.033Z,7.32
2023-05-19T11:35:10.370Z,7.97
2023-05-19T11:38:16.900Z,4.50
2023-05-19T11:41:22.446Z,4.20
2023-05-19T11:44:27.032Z,2.95
2023-05-19T11:47:46.486Z,4.32
2023-05-19T11:50:59.831Z,4.32
2023-05-19T11:54:04.514Z,4.22
2023-05-19T11:57:14.110Z,3.13
2023-05-19T12:00:22.363Z,5.93
2023-05-19T12:03:28.806Z,7.43
2023-05-19T12:06:34.089Z,5.35
2023-05-19T12:09:40.905Z,5.32
2023-05-19T12:12:46.403Z,4.70
2023-05-19T12:15:52.521Z,5.65
2023-05-19T12:18:57.339Z,5.65
2023-05-19T12:22:04.077Z,5.55
2023-05-19T12:25:09.885Z,4.85
2023-05-19T12:28:16.710Z,6.07
2023-05-19T12:31:24.794Z,4.40
2023-05-19T12:34:30.379Z,5.90
2023-05-19T12:37:36.507Z,4.93
2023-05-19T12:40:41.466Z,8.45
2023-05-19T12:43:46.314Z,6.25
2023-05-19T12:46:52.505Z,6.05
2023-05-19T12:50:00.346Z,7.90
2023-05-19T12:53:10.609Z,4.88
2023-05-19T12:56:16.081Z,4.53
2023-05-19T12:59:37.943Z,6.03
2023-05-19T13:03:06.662Z,5.55
2023-05-19T13:06:11.997Z,4.78
2023-05-19T13:09:17.842Z,7.22
2023-05-19T13:12:22.667Z,10.65
2023-05-19T13:15:37.878Z,5.22
2023-05-19T13:18:42.432Z,5.97
2023-05-19T13:21:47.725Z,4.90
2023-05-19T13:24:53.352Z,5.90
2023-05-19T13:27:59.511Z,3.65
2023-05-19T13:31:04.715Z,4.00
2023-05-19T13:34:09.387Z,4.13
2023-05-19T13:37:14.568Z,8.73
2023-05-19T13:40:19.413Z,6.35
2023-05-19T13:43:24.211Z,6.30
2023-05-19T13:46:40.876Z,4.90
2023-05-19T13:49:50.021Z,4.80
2023-05-19T13:52:54.556Z,6.57
2023-05-19T13:56:03.100Z,3.13
2023-05-19T13:59:07.907Z,5.85
2023-05-19T14:02:12.841Z,7.05
2023-05-19T14:05:17.492Z,4.82
2023-05-19T14:08:22.706Z,4.55
2023-05-19T14:11:27.510Z,4.13
2023-05-19T14:14:34.942Z,4.40
2023-05-19T14:17:39.928Z,3.22
2023-05-19T14:20:44.654Z,6.88
2023-05-19T14:23:49.660Z,7.68
2023-05-19T14:26:54.353Z,8.60
2023-05-19T14:29:59.053Z,5.57
2023-05-19T14:33:03.937Z,4.28
2023-05-19T14:36:11.057Z,5.85
2023-05-19T14:39:15.780Z,3.20
2023-05-19T14:42:20.768Z,3.33
2023-05-19T14:45:25.268Z,4.28
2023-05-19T14:48:29.739Z,4.95
2023-05-19T14:51:34.682Z,3.95
2023-05-19T14:54:39.285Z,3.42
2023-05-19T14:57:45.700Z,2.90
2023-05-19T15:00:50.642Z,5.30
2023-05-19T15:03:55.594Z,4.00
2023-05-19T15:10:09.952Z,5.90
2023-05-19T15:13:14.871Z,3.63
2023-05-19T15:16:19.796Z,4.97
2023-05-19T15:19:27.552Z,3.50
2023-05-19T15:22:32.755Z,5.38
2023-05-19T15:25:37.973Z,5.68
2023-05-19T15:28:42.770Z,4.82
2023-05-19T15:31:53.524Z,4.97
2023-05-19T15:34:58.060Z,4.20
2023-05-19T15:38:06.488Z,5.15
2023-05-19T15:41:11.373Z,3.70
2023-05-19T15:44:16.336Z,5.22
2023-05-19T15:47:24.100Z,6.70
2023-05-19T15:50:29.031Z,5.00
2023-05-19T15:53:33.581Z,6.03
2023-05-19T15:56:38.063Z,5.07
2023-05-19T15:59:42.858Z,4.95
2023-05-19T16:02:47.718Z,4.75
2023-05-19T16:05:54.250Z,4.57
2023-05-19T16:08:58.651Z,3.42
2023-05-19T16:12:03.518Z,3.50
2023-05-19T16:15:09.015Z,4.18
2023-05-19T16:18:13.728Z,4.00
2023-05-19T16:21:18.408Z,3.47
2023-05-19T16:24:23.252Z,4.47
2023-05-19T16:27:28.052Z,5.25
2023-05-19T16:30:33.095Z,4.30
2023-05-19T16:33:37.693Z,5.72
2023-05-19T16:36:42.629Z,3.03
2023-05-19T16:39:48.447Z,3.33
2023-05-19T16:42:53.603Z,4.90
2023-05-19T16:45:58.378Z,2.45
2023-05-19T16:49:03.464Z,5.07
2023-05-19T16:52:09.201Z,4.40
2023-05-19T16:55:19.437Z,3.70
2023-05-19T16:58:23.767Z,3.42
2023-05-19T17:01:28.123Z,2.88
2023-05-19T17:04:33.086Z,2.88
2023-05-19T17:07:37.563Z,3.35
2023-05-19T17:10:45.431Z,5.07
2023-05-19T17:13:49.969Z,5.15
2023-05-19T17:16:57.583Z,3.38
2023-05-19T17:20:02.629Z,3.70
2023-05-19T17:23:07.507Z,2.92
2023-05-19T17:26:12.146Z,2.47
2023-05-19T17:29:16.620Z,2.92
2023-05-19T17:32:25.935Z,4.68
2023-05-19T17:35:31.210Z,4.20
2023-05-19T17:38:40.274Z,2.45
2023-05-19T17:41:44.978Z,2.28
2023-05-19T17:44:49.905Z,3.67
2023-05-19T17:47:54.806Z,3.38
2023-05-19T17:51:00.138Z,3.55
2023-05-19T17:54:05.819Z,2.67
2023-05-19T17:57:15.065Z,5.95
2023-05-19T18:00:20.880Z,3.08
2023-05-19T18:03:26.240Z,4.00
2023-05-19T18:06:31.861Z,2.72
2023-05-19T18:09:40.511Z,5.15
2023-05-19T18:12:45.576Z,3.70
2023-05-19T18:15:50.423Z,3.60
2023-05-19T18:18:54.988Z,2.17
2023-05-19T18:21:59.859Z,2.47
2023-05-19T18:25:05.588Z,3.22
2023-05-19T18:28:10.179Z,2.95
2023-05-19T18:31:20.010Z,3.20
2023-05-19T18:34:24.663Z,2.85
2023-05-19T18:37:29.707Z,3.65
2023-05-19T18:40:35.007Z,3.85
2023-05-19T18:43:40.165Z,3.72
2023-05-19T18:46:44.886Z,2.53
2023-05-19T18:49:50.206Z,3.95
2023-05-19T18:52:57.199Z,3.70
2023-05-19T18:56:04.146Z,2.92
2023-05-19T18:59:16.370Z,2.65
2023-05-19T19:02:21.129Z,3.08
2023-05-19T19:05:26.194Z,3.45
2023-05-19T19:08:30.782Z,2.65
2023-05-19T19:11:35.887Z,2.42
2023-05-19T19:14:40.471Z,3.67
2023-05-19T19:17:45.717Z,3.50
2023-05-19T19:20:50.596Z,2.30
2023-05-19T19:23:56.488Z,3.13
2023-05-19T19:27:01.485Z,2.85
2023-05-19T19:30:07.403Z,2.67
2023-05-19T19:33:12.145Z,2.40
2023-05-19T19:36:16.858Z,2.20
2023-05-19T19:39:21.582Z,2.78
2023-05-19T19:42:26.417Z,4.32
2023-05-19T19:45:32.184Z,2.83
2023-05-19T19:48:39.752Z,2.78
2023-05-19T19:51:44.768Z,3.20
2023-05-19T19:54:49.555Z,2.42
2023-05-19T19:57:54.428Z,4.95
2023-05-19T20:01:02.097Z,2.08
2023-05-19T20:04:06.939Z,1.95
2023-05-19T20:07:11.587Z,2.45
2023-05-19T20:10:16.840Z,2.22
2023-05-19T20:13:22.092Z,4.75
2023-05-19T20:16:27.216Z,4.10
2023-05-19T20:19:31.900Z,3.42
2023-05-19T20:22:37.024Z,3.17
2023-05-19T20:25:51.069Z,3.28
2023-05-19T20:29:03.118Z,2.97
2023-05-19T20:32:08.134Z,2.70
2023-05-19T20:35:13.410Z,3.20
2023-05-19T20:38:17.779Z,2.63
2023-05-19T20:41:22.592Z,2.78
2023-05-19T20:44:27.494Z,2.88
2023-05-19T20:47:32.098Z,3.45
2023-05-19T20:50:37.388Z,4.10
2023-05-19T20:53:42.184Z,3.28
2023-05-19T20:56:47.050Z,3.30
2023-05-19T20:59:51.918Z,2.47
2023-05-19T21:02:56.677Z,2.65
2023-05-19T21:06:01.379Z,3.08
2023-05-19T21:09:07.058Z,2.70
2023-05-19T21:12:12.257Z,2.60
2023-05-19T21:15:17.091Z,2.47
2023-05-19T21:18:21.825Z,4.35
2023-05-19T21:21:26.688Z,4.30
2023-05-19T21:24:31.229Z,5.15
2023-05-19T21:27:36.477Z,4.78
2023-05-19T21:30:41.695Z,4.65
2023-05-19T21:33:46.653Z,3.53
2023-05-19T21:36:51.434Z,6.53
2023-05-19T21:39:55.963Z,4.95
2023-05-19T21:43:00.456Z,4.28
2023-05-19T21:46:05.968Z,5.25
2023-05-19T21:49:10.927Z,3.67
2023-05-19T21:52:16.189Z,4.15
2023-05-19T21:55:22.134Z,3.88
2023-05-19T21:58:26.945Z,5.22
2023-05-19T22:01:32.549Z,5.55
2023-05-19T22:04:37.156Z,5.68
2023-05-19T22:07:41.911Z,4.97
2023-05-19T22:10:50.979Z,3.97
2023-05-19T22:13:55.777Z,3.60
2023-05-19T22:17:00.380Z,4.45
2023-05-19T22:20:06.922Z,6.65
2023-05-19T22:23:11.268Z,5.60
2023-05-19T22:26:16.014Z,4.45
2023-05-19T22:29:20.842Z,7.63
2023-05-19T22:32:26.021Z,6.25
2023-05-19T22:35:30.396Z,5.13
2023-05-19T22:38:34.840Z,5.10
2023-05-19T22:41:40.842Z,5.80
2023-05-19T22:44:45.995Z,5.13
2023-05-19T22:47:50.954Z,5.00
2023-05-19T22:50:55.942Z,6.72
2023-05-19T22:54:00.693Z,5.60
2023-05-19T22:57:05.672Z,5.93
2023-05-19T23:00:13.983Z,7.00
2023-05-19T23:03:18.566Z,9.90
2023-05-19T23:06:23.219Z,6.85
2023-05-19T23:09:27.704Z,5.00
2023-05-19T23:12:32.374Z,6.72
2023-05-19T23:15:36.895Z,4.40
2023-05-19T23:18:41.783Z,5.15
2023-05-19T23:21:48.175Z,5.03
2023-05-19T23:24:52.653Z,6.47
2023-05-19T23:27:56.993Z,5.18
2023-05-19T23:31:01.598Z,5.20
2023-05-19T23:34:07.249Z,6.25
2023-05-19T23:37:11.824Z,5.95
2023-05-19T23:40:16.696Z,7.70
2023-05-19T23:43:21.487Z,6.45
2023-05-19T23:46:26.427Z,6.35
2023-05-19T23:49:30.968Z,5.80
2023-05-19T23:52:35.904Z,5.90
2023-05-19T23:55:40.746Z,4.53
2023-05-19T23:58:45.337Z,5.95
